• Join FlightAware (Why Join?)
  • Login
  • US Flag 
07:29PM EDT


 

Airport Tracker/Info


-or-


 

Live Flight TrackerFlight Track Log ✈ UPS1121 ✈ 03-Jul-2013 ✈ KALB - KBDL

Flight Track Log - Related Links

Times and Time Zones

All times are in EDT time to prevent confusion due to time zone crossing. See the UPS1121 flight status page for this flight to view local times or setup timezone preferences in your user account.

Time Position Orientation Groundspeed Altitude Reporting Facility
EDT Latitude Longitude Course Direction KTS MPH feet Rate Location/Type
08:34PM 42.7381 -73.8111 147° Southeast 133 153 1,500  Level Boston Center
08:35PM 42.7050 -73.7822 147° Southeast 190 219 2,600 2,340 Climbing Boston Center
08:36PM 42.6375 -73.6847 133° Southeast 250 288 7,100 3,240 Climbing Boston Center
08:37PM 42.5781 -73.5961 132° Southeast 284 327 10,600 2,580 Climbing Boston Center
08:38PM 42.5450 -73.5503 134° Southeast 326 375 11,000 360 Climbing Boston Center
08:38PM 42.5206 -73.5078 128° Southeast 320 368 11,000  Level Boston Center
08:39PM 42.4464 -73.3967 132° Southeast 348 400 11,000  Level Boston Center
08:40PM 42.3742 -73.2917 133° Southeast 353 406 11,000 -60 Level Boston Center
08:41PM 42.3167 -73.1981 130° Southeast 348 400 10,900 -300 Descending Boston Center
08:42PM 42.2650 -73.1189 131° Southeast 328 377 10,500 -1,080 Descending Boston Center
08:43PM 42.2261 -73.0092 116° Southeast 306 352 8,800 -1,560 Descending Boston Center
08:44PM 42.2056 -72.9108 106° East 293 337 7,400 -1,560 Descending Boston Center
08:45PM 42.1853 -72.7931 103° East 293 337 5,700 -2,040 Descending Boston Center
08:46PM 42.1667 -72.7006 105° East 293 337 3,400 -1,380 Descending Boston Center
08:47PM 42.1356 -72.5969 112° Southeast 275 316 3,000 -720 Descending Boston Center
08:48PM 42.0856 -72.5353 138° Southeast 256 295 2,000 -480 Descending Boston Center
08:49PM 42.0397 -72.5519 195° South 191 220 2,100 -180 Climbing Boston Center
08:50PM 42.0106 -72.5967 229° Southwest 154 177 1,700 -540 Descending Boston Center
08:51PM 41.9814 -72.6328 223° Southwest 154 177 1,100 -600 Descending Boston Center
08:52PM 41.9647 -72.6578 228° Southwest 134 154 600 -540 Descending Boston Center
08:54PM 41.9333 -72.6833 183° South  Level FlightAware Approximate
09:01PM 41.9392 -72.6834 183° South  Level Estimated
09:02PM 41.9333 -72.6833 183° South  Level FlightAware Approximate
09:03PM 41.9392 -72.6834 183° South  Level Estimated